sensor_id;sensor_type;location;lat;lon;timestamp;P1;durP1;ratioP1;P2;durP2;ratioP2
58252;SDS011;44050;48.884;8.762;2022-11-11T00:00:27;0.65;;;0.65;;
58252;SDS011;44050;48.884;8.762;2022-11-11T00:03:16;3.92;;;0.68;;
58252;SDS011;44050;48.884;8.762;2022-11-11T00:06:07;0.45;;;0.45;;
58252;SDS011;44050;48.884;8.762;2022-11-11T00:08:58;4.57;;;0.40;;
58252;SDS011;44050;48.884;8.762;2022-11-11T00:11:47;0.40;;;0.40;;
58252;SDS011;44050;48.884;8.762;2022-11-11T00:14:37;3.65;;;0.98;;
58252;SDS011;44050;48.884;8.762;2022-11-11T00:17:26;0.95;;;0.47;;
58252;SDS011;44050;48.884;8.762;2022-11-11T00:20:35;1.77;;;0.75;;
58252;SDS011;44050;48.884;8.762;2022-11-11T00:24:03;0.40;;;0.40;;
58252;SDS011;44050;48.884;8.762;2022-11-11T00:27:12;0.70;;;0.70;;
58252;SDS011;44050;48.884;8.762;2022-11-11T00:30:02;1.48;;;0.70;;
58252;SDS011;44050;48.884;8.762;2022-11-11T00:32:51;0.65;;;0.55;;
58252;SDS011;44050;48.884;8.762;2022-11-11T00:35:40;2.72;;;0.30;;
58252;SDS011;44050;48.884;8.762;2022-11-11T00:38:42;0.60;;;0.60;;
58252;SDS011;44050;48.884;8.762;2022-11-11T00:41:34;0.68;;;0.30;;
58252;SDS011;44050;48.884;8.762;2022-11-11T00:44:23;4.38;;;0.30;;
58252;SDS011;44050;48.884;8.762;2022-11-11T00:47:13;0.85;;;0.25;;
58252;SDS011;44050;48.884;8.762;2022-11-11T00:50:27;10.40;;;0.65;;
58252;SDS011;44050;48.884;8.762;2022-11-11T00:53:36;0.43;;;0.43;;
58252;SDS011;44050;48.884;8.762;2022-11-11T00:56:27;0.20;;;0.20;;
58252;SDS011;44050;48.884;8.762;2022-11-11T00:59:16;0.52;;;0.52;;
58252;SDS011;44050;48.884;8.762;2022-11-11T01:02:06;0.43;;;0.43;;
58252;SDS011;44050;48.884;8.762;2022-11-11T01:04:55;0.77;;;0.38;;
58252;SDS011;44050;48.884;8.762;2022-11-11T01:07:44;0.57;;;0.57;;
58252;SDS011;44050;48.884;8.762;2022-11-11T01:10:36;2.17;;;1.13;;
58252;SDS011;44050;48.884;8.762;2022-11-11T01:13:27;0.45;;;0.45;;
58252;SDS011;44050;48.884;8.762;2022-11-11T01:16:20;4.65;;;0.45;;
58252;SDS011;44050;48.884;8.762;2022-11-11T01:19:10;0.43;;;0.43;;
58252;SDS011;44050;48.884;8.762;2022-11-11T01:21:59;1.85;;;0.25;;
58252;SDS011;44050;48.884;8.762;2022-11-11T01:24:48;1.80;;;0.93;;
58252;SDS011;44050;48.884;8.762;2022-11-11T01:27:37;0.68;;;0.63;;
58252;SDS011;44050;48.884;8.762;2022-11-11T01:30:27;0.30;;;0.15;;
58252;SDS011;44050;48.884;8.762;2022-11-11T01:33:16;0.30;;;0.22;;
58252;SDS011;44050;48.884;8.762;2022-11-11T01:36:09;1.50;;;0.65;;
58252;SDS011;44050;48.884;8.762;2022-11-11T01:38:59;0.45;;;0.45;;
58252;SDS011;44050;48.884;8.762;2022-11-11T01:41:48;0.57;;;0.40;;
58252;SDS011;44050;48.884;8.762;2022-11-11T01:44:45;2.67;;;0.60;;
58252;SDS011;44050;48.884;8.762;2022-11-11T01:47:34;0.03;;;0.03;;
58252;SDS011;44050;48.884;8.762;2022-11-11T01:50:42;1.00;;;0.35;;
58252;SDS011;44050;48.884;8.762;2022-11-11T01:53:32;0.22;;;0.22;;
58252;SDS011;44050;48.884;8.762;2022-11-11T01:56:21;0.22;;;0.22;;
58252;SDS011;44050;48.884;8.762;2022-11-11T01:59:11;0.30;;;0.30;;
58252;SDS011;44050;48.884;8.762;2022-11-11T02:02:02;0.15;;;0.15;;
58252;SDS011;44050;48.884;8.762;2022-11-11T02:04:53;0.20;;;0.20;;
58252;SDS011;44050;48.884;8.762;2022-11-11T02:08:09;0.40;;;0.40;;
58252;SDS011;44050;48.884;8.762;2022-11-11T02:11:05;5.18;;;0.50;;
58252;SDS011;44050;48.884;8.762;2022-11-11T02:13:55;1.08;;;0.70;;
58252;SDS011;44050;48.884;8.762;2022-11-11T02:17:07;0.75;;;0.40;;
58252;SDS011;44050;48.884;8.762;2022-11-11T02:19:58;0.70;;;0.70;;
58252;SDS011;44050;48.884;8.762;2022-11-11T02:22:49;0.30;;;0.30;;
58252;SDS011;44050;48.884;8.762;2022-11-11T02:25:39;0.60;;;0.60;;
58252;SDS011;44050;48.884;8.762;2022-11-11T02:28:30;0.73;;;0.73;;
58252;SDS011;44050;48.884;8.762;2022-11-11T02:31:24;4.32;;;0.85;;
58252;SDS011;44050;48.884;8.762;2022-11-11T02:34:14;0.40;;;0.40;;
58252;SDS011;44050;48.884;8.762;2022-11-11T02:37:04;0.70;;;0.43;;
58252;SDS011;44050;48.884;8.762;2022-11-11T02:39:56;0.55;;;0.40;;
58252;SDS011;44050;48.884;8.762;2022-11-11T02:42:48;0.60;;;0.60;;
58252;SDS011;44050;48.884;8.762;2022-11-11T02:45:37;1.27;;;0.77;;
58252;SDS011;44050;48.884;8.762;2022-11-11T02:48:26;1.60;;;0.55;;
58252;SDS011;44050;48.884;8.762;2022-11-11T02:51:16;0.73;;;0.30;;
58252;SDS011;44050;48.884;8.762;2022-11-11T02:54:05;1.30;;;0.38;;
58252;SDS011;44050;48.884;8.762;2022-11-11T02:56:54;0.68;;;0.60;;
58252;SDS011;44050;48.884;8.762;2022-11-11T02:59:57;1.85;;;0.40;;
58252;SDS011;44050;48.884;8.762;2022-11-11T03:02:46;0.57;;;0.57;;
58252;SDS011;44050;48.884;8.762;2022-11-11T03:05:36;0.50;;;0.50;;
58252;SDS011;44050;48.884;8.762;2022-11-11T03:08:25;1.25;;;0.70;;
58252;SDS011;44050;48.884;8.762;2022-11-11T03:11:14;2.28;;;0.40;;
58252;SDS011;44050;48.884;8.762;2022-11-11T03:14:04;0.20;;;0.20;;
58252;SDS011;44050;48.884;8.762;2022-11-11T03:16:53;0.38;;;0.30;;
58252;SDS011;44050;48.884;8.762;2022-11-11T03:20:01;0.98;;;0.47;;
58252;SDS011;44050;48.884;8.762;2022-11-11T03:25:58;0.35;;;0.35;;
58252;SDS011;44050;48.884;8.762;2022-11-11T03:28:47;0.93;;;0.77;;
58252;SDS011;44050;48.884;8.762;2022-11-11T03:31:36;0.65;;;0.65;;
58252;SDS011;44050;48.884;8.762;2022-11-11T03:34:26;0.40;;;0.40;;
58252;SDS011;44050;48.884;8.762;2022-11-11T03:37:16;1.38;;;0.93;;
58252;SDS011;44050;48.884;8.762;2022-11-11T03:40:24;0.20;;;0.20;;
58252;SDS011;44050;48.884;8.762;2022-11-11T03:43:14;0.40;;;0.40;;
58252;SDS011;44050;48.884;8.762;2022-11-11T03:46:04;0.77;;;0.77;;
58252;SDS011;44050;48.884;8.762;2022-11-11T03:48:53;0.60;;;0.60;;
58252;SDS011;44050;48.884;8.762;2022-11-11T03:51:42;0.40;;;0.40;;
58252;SDS011;44050;48.884;8.762;2022-11-11T03:54:31;4.75;;;0.20;;
58252;SDS011;44050;48.884;8.762;2022-11-11T03:57:20;0.30;;;0.30;;
58252;SDS011;44050;48.884;8.762;2022-11-11T04:00:20;1.08;;;0.30;;
58252;SDS011;44050;48.884;8.762;2022-11-11T04:03:13;0.38;;;0.38;;
58252;SDS011;44050;48.884;8.762;2022-11-11T04:06:32;0.80;;;0.68;;
58252;SDS011;44050;48.884;8.762;2022-11-11T04:09:40;0.50;;;0.50;;
58252;SDS011;44050;48.884;8.762;2022-11-11T04:12:48;0.75;;;0.55;;
58252;SDS011;44050;48.884;8.762;2022-11-11T04:15:57;3.05;;;0.80;;
58252;SDS011;44050;48.884;8.762;2022-11-11T04:18:55;1.10;;;0.85;;
58252;SDS011;44050;48.884;8.762;2022-11-11T04:22:04;1.30;;;0.73;;
58252;SDS011;44050;48.884;8.762;2022-11-11T04:24:53;0.80;;;0.80;;
58252;SDS011;44050;48.884;8.762;2022-11-11T04:28:18;0.70;;;0.30;;
58252;SDS011;44050;48.884;8.762;2022-11-11T04:31:27;2.38;;;0.73;;
58252;SDS011;44050;48.884;8.762;2022-11-11T04:34:16;0.32;;;0.32;;
58252;SDS011;44050;48.884;8.762;2022-11-11T04:37:05;3.53;;;0.55;;
58252;SDS011;44050;48.884;8.762;2022-11-11T04:39:54;0.60;;;0.60;;
58252;SDS011;44050;48.884;8.762;2022-11-11T04:43:02;1.77;;;0.85;;
58252;SDS011;44050;48.884;8.762;2022-11-11T04:45:51;2.63;;;0.55;;
58252;SDS011;44050;48.884;8.762;2022-11-11T04:48:40;0.65;;;0.65;;
58252;SDS011;44050;48.884;8.762;2022-11-11T04:51:30;0.30;;;0.30;;
58252;SDS011;44050;48.884;8.762;2022-11-11T04:54:39;0.98;;;0.70;;
58252;SDS011;44050;48.884;8.762;2022-11-11T04:57:48;1.10;;;0.95;;
58252;SDS011;44050;48.884;8.762;2022-11-11T05:00:38;3.20;;;1.75;;
58252;SDS011;44050;48.884;8.762;2022-11-11T05:03:27;1.35;;;1.27;;
58252;SDS011;44050;48.884;8.762;2022-11-11T05:06:19;2.35;;;1.15;;
58252;SDS011;44050;48.884;8.762;2022-11-11T05:12:17;1.60;;;0.80;;
58252;SDS011;44050;48.884;8.762;2022-11-11T05:15:06;1.02;;;0.93;;
58252;SDS011;44050;48.884;8.762;2022-11-11T05:18:13;3.10;;;0.65;;
58252;SDS011;44050;48.884;8.762;2022-11-11T05:21:24;0.40;;;0.40;;
58252;SDS011;44050;48.884;8.762;2022-11-11T05:24:13;0.77;;;0.52;;
58252;SDS011;44050;48.884;8.762;2022-11-11T05:27:21;0.52;;;0.45;;
58252;SDS011;44050;48.884;8.762;2022-11-11T05:30:12;1.15;;;0.98;;
58252;SDS011;44050;48.884;8.762;2022-11-11T05:33:01;0.30;;;0.30;;
58252;SDS011;44050;48.884;8.762;2022-11-11T05:35:51;0.40;;;0.40;;
58252;SDS011;44050;48.884;8.762;2022-11-11T05:38:40;0.82;;;0.65;;
58252;SDS011;44050;48.884;8.762;2022-11-11T05:41:29;3.03;;;0.70;;
58252;SDS011;44050;48.884;8.762;2022-11-11T05:44:19;0.40;;;0.40;;
58252;SDS011;44050;48.884;8.762;2022-11-11T05:47:08;0.98;;;0.55;;
58252;SDS011;44050;48.884;8.762;2022-11-11T05:49:57;0.50;;;0.50;;
58252;SDS011;44050;48.884;8.762;2022-11-11T05:52:47;0.55;;;0.55;;
58252;SDS011;44050;48.884;8.762;2022-11-11T05:55:37;1.80;;;0.40;;
58252;SDS011;44050;48.884;8.762;2022-11-11T05:58:26;0.30;;;0.30;;
58252;SDS011;44050;48.884;8.762;2022-11-11T06:01:15;1.35;;;0.30;;
58252;SDS011;44050;48.884;8.762;2022-11-11T06:04:04;0.35;;;0.35;;
58252;SDS011;44050;48.884;8.762;2022-11-11T06:06:53;0.30;;;0.30;;
58252;SDS011;44050;48.884;8.762;2022-11-11T06:09:43;0.32;;;0.32;;
58252;SDS011;44050;48.884;8.762;2022-11-11T06:12:32;0.50;;;0.50;;
58252;SDS011;44050;48.884;8.762;2022-11-11T06:15:41;0.40;;;0.40;;
58252;SDS011;44050;48.884;8.762;2022-11-11T06:18:31;1.08;;;0.50;;
58252;SDS011;44050;48.884;8.762;2022-11-11T06:21:20;0.40;;;0.40;;
58252;SDS011;44050;48.884;8.762;2022-11-11T06:24:10;0.15;;;0.15;;
58252;SDS011;44050;48.884;8.762;2022-11-11T06:26:59;0.30;;;0.25;;
58252;SDS011;44050;48.884;8.762;2022-11-11T06:29:48;0.35;;;0.30;;
58252;SDS011;44050;48.884;8.762;2022-11-11T06:32:37;0.38;;;0.38;;
58252;SDS011;44050;48.884;8.762;2022-11-11T06:35:27;0.20;;;0.20;;
58252;SDS011;44050;48.884;8.762;2022-11-11T06:38:16;0.30;;;0.30;;
58252;SDS011;44050;48.884;8.762;2022-11-11T06:41:06;1.25;;;0.70;;
58252;SDS011;44050;48.884;8.762;2022-11-11T06:43:55;1.77;;;0.73;;
58252;SDS011;44050;48.884;8.762;2022-11-11T06:46:44;2.75;;;2.03;;
58252;SDS011;44050;48.884;8.762;2022-11-11T06:49:33;1.73;;;1.63;;
58252;SDS011;44050;48.884;8.762;2022-11-11T06:52:23;1.30;;;1.25;;
58252;SDS011;44050;48.884;8.762;2022-11-11T06:55:12;1.40;;;1.30;;
58252;SDS011;44050;48.884;8.762;2022-11-11T06:58:15;1.60;;;1.08;;
58252;SDS011;44050;48.884;8.762;2022-11-11T07:01:05;0.50;;;0.50;;
58252;SDS011;44050;48.884;8.762;2022-11-11T07:03:55;0.65;;;0.65;;
58252;SDS011;44050;48.884;8.762;2022-11-11T07:06:44;2.92;;;0.85;;
58252;SDS011;44050;48.884;8.762;2022-11-11T07:09:33;0.45;;;0.45;;
58252;SDS011;44050;48.884;8.762;2022-11-11T07:12:22;1.83;;;1.30;;
58252;SDS011;44050;48.884;8.762;2022-11-11T07:15:11;1.17;;;0.95;;
58252;SDS011;44050;48.884;8.762;2022-11-11T07:18:01;1.73;;;0.50;;
58252;SDS011;44050;48.884;8.762;2022-11-11T07:20:50;2.25;;;0.50;;
58252;SDS011;44050;48.884;8.762;2022-11-11T07:23:39;0.30;;;0.30;;
58252;SDS011;44050;48.884;8.762;2022-11-11T07:26:29;1.85;;;0.60;;
58252;SDS011;44050;48.884;8.762;2022-11-11T07:29:18;0.65;;;0.65;;
58252;SDS011;44050;48.884;8.762;2022-11-11T07:32:08;2.45;;;0.70;;
58252;SDS011;44050;48.884;8.762;2022-11-11T07:34:58;0.50;;;0.50;;
58252;SDS011;44050;48.884;8.762;2022-11-11T07:37:47;0.50;;;0.50;;
58252;SDS011;44050;48.884;8.762;2022-11-11T07:40:36;8.98;;;1.67;;
58252;SDS011;44050;48.884;8.762;2022-11-11T07:43:26;0.65;;;0.30;;
58252;SDS011;44050;48.884;8.762;2022-11-11T07:46:15;1.25;;;1.00;;
58252;SDS011;44050;48.884;8.762;2022-11-11T07:49:05;2.70;;;1.35;;
58252;SDS011;44050;48.884;8.762;2022-11-11T07:51:54;2.20;;;1.77;;
58252;SDS011;44050;48.884;8.762;2022-11-11T07:54:43;2.80;;;1.20;;
58252;SDS011;44050;48.884;8.762;2022-11-11T07:57:32;1.77;;;1.33;;
58252;SDS011;44050;48.884;8.762;2022-11-11T08:00:21;1.55;;;1.45;;
58252;SDS011;44050;48.884;8.762;2022-11-11T08:03:11;1.33;;;1.00;;
58252;SDS011;44050;48.884;8.762;2022-11-11T08:06:01;1.20;;;0.93;;
58252;SDS011;44050;48.884;8.762;2022-11-11T08:08:50;0.75;;;0.75;;
58252;SDS011;44050;48.884;8.762;2022-11-11T08:11:39;0.45;;;0.45;;
58252;SDS011;44050;48.884;8.762;2022-11-11T08:14:47;0.70;;;0.70;;
58252;SDS011;44050;48.884;8.762;2022-11-11T08:17:37;1.05;;;0.95;;
58252;SDS011;44050;48.884;8.762;2022-11-11T08:20:27;0.40;;;0.40;;
58252;SDS011;44050;48.884;8.762;2022-11-11T08:23:16;0.60;;;0.52;;
58252;SDS011;44050;48.884;8.762;2022-11-11T08:26:11;1.33;;;1.23;;
58252;SDS011;44050;48.884;8.762;2022-11-11T08:29:01;0.60;;;0.50;;
58252;SDS011;44050;48.884;8.762;2022-11-11T08:31:51;1.05;;;1.00;;
58252;SDS011;44050;48.884;8.762;2022-11-11T08:34:41;0.93;;;0.90;;
58252;SDS011;44050;48.884;8.762;2022-11-11T08:37:30;1.25;;;1.15;;
58252;SDS011;44050;48.884;8.762;2022-11-11T08:40:19;0.77;;;0.77;;
58252;SDS011;44050;48.884;8.762;2022-11-11T08:43:09;1.38;;;1.27;;
58252;SDS011;44050;48.884;8.762;2022-11-11T08:45:58;2.30;;;1.50;;
58252;SDS011;44050;48.884;8.762;2022-11-11T08:48:48;2.25;;;1.00;;
58252;SDS011;44050;48.884;8.762;2022-11-11T08:51:38;11.43;;;1.58;;
58252;SDS011;44050;48.884;8.762;2022-11-11T08:54:28;0.65;;;0.60;;
58252;SDS011;44050;48.884;8.762;2022-11-11T08:57:17;2.20;;;0.60;;
58252;SDS011;44050;48.884;8.762;2022-11-11T09:00:06;0.80;;;0.80;;
58252;SDS011;44050;48.884;8.762;2022-11-11T09:02:59;1.25;;;1.02;;
58252;SDS011;44050;48.884;8.762;2022-11-11T09:05:48;0.40;;;0.40;;
58252;SDS011;44050;48.884;8.762;2022-11-11T09:08:40;1.67;;;0.77;;
58252;SDS011;44050;48.884;8.762;2022-11-11T09:11:29;1.85;;;1.05;;
58252;SDS011;44050;48.884;8.762;2022-11-11T09:14:23;1.58;;;0.40;;
58252;SDS011;44050;48.884;8.762;2022-11-11T09:17:13;3.53;;;1.08;;
58252;SDS011;44050;48.884;8.762;2022-11-11T09:20:03;1.65;;;0.90;;
58252;SDS011;44050;48.884;8.762;2022-11-11T09:22:52;0.82;;;0.80;;
58252;SDS011;44050;48.884;8.762;2022-11-11T09:25:42;0.40;;;0.40;;
58252;SDS011;44050;48.884;8.762;2022-11-11T09:28:32;1.35;;;0.80;;
58252;SDS011;44050;48.884;8.762;2022-11-11T09:31:22;1.45;;;1.35;;
58252;SDS011;44050;48.884;8.762;2022-11-11T09:34:12;0.45;;;0.45;;
58252;SDS011;44050;48.884;8.762;2022-11-11T09:37:01;0.73;;;0.73;;
58252;SDS011;44050;48.884;8.762;2022-11-11T09:39:51;1.63;;;1.50;;
58252;SDS011;44050;48.884;8.762;2022-11-11T09:42:41;1.92;;;1.20;;
58252;SDS011;44050;48.884;8.762;2022-11-11T09:45:38;2.28;;;1.35;;
58252;SDS011;44050;48.884;8.762;2022-11-11T09:51:48;0.73;;;0.73;;
58252;SDS011;44050;48.884;8.762;2022-11-11T09:54:42;0.88;;;0.82;;
58252;SDS011;44050;48.884;8.762;2022-11-11T10:00:28;4.15;;;2.63;;
58252;SDS011;44050;48.884;8.762;2022-11-11T10:03:19;3.08;;;1.52;;
58252;SDS011;44050;48.884;8.762;2022-11-11T10:06:20;1.17;;;1.08;;
58252;SDS011;44050;48.884;8.762;2022-11-11T10:09:17;1.88;;;1.13;;
58252;SDS011;44050;48.884;8.762;2022-11-11T10:12:12;1.48;;;1.25;;
58252;SDS011;44050;48.884;8.762;2022-11-11T10:15:03;7.32;;;2.10;;
58252;SDS011;44050;48.884;8.762;2022-11-11T10:20:42;1.25;;;1.08;;
58252;SDS011;44050;48.884;8.762;2022-11-11T10:23:36;1.58;;;0.70;;
58252;SDS011;44050;48.884;8.762;2022-11-11T10:26:33;2.47;;;1.15;;
58252;SDS011;44050;48.884;8.762;2022-11-11T10:29:24;1.35;;;0.93;;
58252;SDS011;44050;48.884;8.762;2022-11-11T10:32:27;1.02;;;0.80;;
58252;SDS011;44050;48.884;8.762;2022-11-11T10:35:19;0.73;;;0.73;;
58252;SDS011;44050;48.884;8.762;2022-11-11T10:47:28;1.42;;;1.33;;
58252;SDS011;44050;48.884;8.762;2022-11-11T10:53:16;0.65;;;0.60;;
58252;SDS011;44050;48.884;8.762;2022-11-11T10:59:04;8.50;;;0.82;;
58252;SDS011;44050;48.884;8.762;2022-11-11T11:05:34;1.83;;;1.00;;
58252;SDS011;44050;48.884;8.762;2022-11-11T11:07:58;0.98;;;0.63;;
58252;SDS011;44050;48.884;8.762;2022-11-11T11:16:47;3.03;;;1.00;;
58252;SDS011;44050;48.884;8.762;2022-11-11T11:19:39;1.30;;;1.20;;
58252;SDS011;44050;48.884;8.762;2022-11-11T11:22:43;2.53;;;1.58;;
58252;SDS011;44050;48.884;8.762;2022-11-11T11:25:32;1.92;;;1.40;;
58252;SDS011;44050;48.884;8.762;2022-11-11T11:28:22;4.10;;;1.48;;
58252;SDS011;44050;48.884;8.762;2022-11-11T11:31:11;1.88;;;1.33;;
58252;SDS011;44050;48.884;8.762;2022-11-11T11:34:00;1.08;;;0.95;;
58252;SDS011;44050;48.884;8.762;2022-11-11T11:36:57;2.05;;;0.95;;
58252;SDS011;44050;48.884;8.762;2022-11-11T11:39:47;1.73;;;1.20;;
58252;SDS011;44050;48.884;8.762;2022-11-11T11:42:37;1.23;;;1.23;;
58252;SDS011;44050;48.884;8.762;2022-11-11T11:45:27;5.88;;;2.05;;
58252;SDS011;44050;48.884;8.762;2022-11-11T11:54:12;1.23;;;1.13;;
58252;SDS011;44050;48.884;8.762;2022-11-11T11:57:07;3.42;;;1.55;;
58252;SDS011;44050;48.884;8.762;2022-11-11T12:06:07;2.50;;;1.50;;
58252;SDS011;44050;48.884;8.762;2022-11-11T12:15:10;1.30;;;1.20;;
58252;SDS011;44050;48.884;8.762;2022-11-11T12:21:07;1.33;;;1.23;;
58252;SDS011;44050;48.884;8.762;2022-11-11T12:35:48;3.60;;;0.88;;
58252;SDS011;44050;48.884;8.762;2022-11-11T12:44:39;1.08;;;0.98;;
58252;SDS011;44050;48.884;8.762;2022-11-11T12:56:13;4.93;;;1.70;;
58252;SDS011;44050;48.884;8.762;2022-11-11T13:13:51;1.27;;;1.17;;
58252;SDS011;44050;48.884;8.762;2022-11-11T13:16:44;2.08;;;1.52;;
58252;SDS011;44050;48.884;8.762;2022-11-11T13:19:36;2.10;;;1.52;;
58252;SDS011;44050;48.884;8.762;2022-11-11T13:22:26;2.85;;;1.25;;
58252;SDS011;44050;48.884;8.762;2022-11-11T13:25:19;1.17;;;1.08;;
58252;SDS011;44050;48.884;8.762;2022-11-11T13:34:09;0.95;;;0.95;;
58252;SDS011;44050;48.884;8.762;2022-11-11T13:37:00;2.05;;;1.10;;
58252;SDS011;44050;48.884;8.762;2022-11-11T13:39:51;1.60;;;1.50;;
58252;SDS011;44050;48.884;8.762;2022-11-11T13:42:41;3.40;;;1.33;;
58252;SDS011;44050;48.884;8.762;2022-11-11T13:51:24;2.75;;;1.05;;
58252;SDS011;44050;48.884;8.762;2022-11-11T13:54:21;2.17;;;1.48;;
58252;SDS011;44050;48.884;8.762;2022-11-11T13:57:18;3.85;;;2.20;;
58252;SDS011;44050;48.884;8.762;2022-11-11T14:00:55;1.67;;;1.58;;
58252;SDS011;44050;48.884;8.762;2022-11-11T14:09:03;2.08;;;1.58;;
58252;SDS011;44050;48.884;8.762;2022-11-11T14:12:00;1.25;;;1.15;;
58252;SDS011;44050;48.884;8.762;2022-11-11T14:15:02;2.20;;;1.40;;
58252;SDS011;44050;48.884;8.762;2022-11-11T14:17:55;1.92;;;1.83;;
58252;SDS011;44050;48.884;8.762;2022-11-11T14:20:45;3.63;;;2.25;;
58252;SDS011;44050;48.884;8.762;2022-11-11T14:26:25;2.33;;;0.93;;
58252;SDS011;44050;48.884;8.762;2022-11-11T14:29:16;1.27;;;1.27;;
58252;SDS011;44050;48.884;8.762;2022-11-11T14:40:56;2.03;;;1.42;;
58252;SDS011;44050;48.884;8.762;2022-11-11T14:43:45;1.67;;;1.20;;
58252;SDS011;44050;48.884;8.762;2022-11-11T14:46:40;4.18;;;2.22;;
58252;SDS011;44050;48.884;8.762;2022-11-11T14:49:47;2.45;;;1.60;;
58252;SDS011;44050;48.884;8.762;2022-11-11T14:52:37;1.05;;;0.93;;
58252;SDS011;44050;48.884;8.762;2022-11-11T14:58:20;2.35;;;2.15;;
58252;SDS011;44050;48.884;8.762;2022-11-11T15:01:13;2.00;;;1.90;;
58252;SDS011;44050;48.884;8.762;2022-11-11T15:04:04;5.15;;;3.00;;
58252;SDS011;44050;48.884;8.762;2022-11-11T15:06:58;1.75;;;1.65;;
58252;SDS011;44050;48.884;8.762;2022-11-11T15:09:58;4.32;;;2.08;;
58252;SDS011;44050;48.884;8.762;2022-11-11T15:15:48;2.30;;;1.80;;
58252;SDS011;44050;48.884;8.762;2022-11-11T15:21:35;3.60;;;3.30;;
58252;SDS011;44050;48.884;8.762;2022-11-11T15:24:32;4.72;;;3.45;;
58252;SDS011;44050;48.884;8.762;2022-11-11T15:30:16;5.53;;;3.13;;
58252;SDS011;44050;48.884;8.762;2022-11-11T15:33:11;4.43;;;2.88;;
58252;SDS011;44050;48.884;8.762;2022-11-11T15:39:04;2.47;;;1.80;;
58252;SDS011;44050;48.884;8.762;2022-11-11T15:44:43;2.80;;;1.95;;
58252;SDS011;44050;48.884;8.762;2022-11-11T15:47:35;2.28;;;2.17;;
58252;SDS011;44050;48.884;8.762;2022-11-11T15:53:20;5.25;;;2.53;;
58252;SDS011;44050;48.884;8.762;2022-11-11T15:56:10;3.33;;;2.75;;
58252;SDS011;44050;48.884;8.762;2022-11-11T16:02:13;2.63;;;2.38;;
58252;SDS011;44050;48.884;8.762;2022-11-11T16:05:13;3.40;;;3.10;;
58252;SDS011;44050;48.884;8.762;2022-11-11T16:08:06;2.35;;;2.15;;
58252;SDS011;44050;48.884;8.762;2022-11-11T16:10:57;3.25;;;2.95;;
58252;SDS011;44050;48.884;8.762;2022-11-11T16:13:58;5.35;;;3.85;;
58252;SDS011;44050;48.884;8.762;2022-11-11T16:16:49;3.33;;;3.03;;
58252;SDS011;44050;48.884;8.762;2022-11-11T16:19:38;5.15;;;3.45;;
58252;SDS011;44050;48.884;8.762;2022-11-11T16:22:34;14.95;;;4.75;;
58252;SDS011;44050;48.884;8.762;2022-11-11T16:25:25;3.90;;;3.58;;
58252;SDS011;44050;48.884;8.762;2022-11-11T16:28:22;5.13;;;3.50;;
58252;SDS011;44050;48.884;8.762;2022-11-11T16:37:19;8.18;;;4.80;;
58252;SDS011;44050;48.884;8.762;2022-11-11T16:40:25;3.65;;;3.45;;
58252;SDS011;44050;48.884;8.762;2022-11-11T16:43:21;5.95;;;4.40;;
58252;SDS011;44050;48.884;8.762;2022-11-11T16:46:12;4.05;;;3.75;;
58252;SDS011;44050;48.884;8.762;2022-11-11T16:49:47;3.88;;;3.47;;
58252;SDS011;44050;48.884;8.762;2022-11-11T16:52:18;3.17;;;2.88;;
58252;SDS011;44050;48.884;8.762;2022-11-11T16:55:10;3.28;;;2.97;;
58252;SDS011;44050;48.884;8.762;2022-11-11T16:58:15;7.38;;;3.72;;
58252;SDS011;44050;48.884;8.762;2022-11-11T17:01:06;4.20;;;3.17;;
58252;SDS011;44050;48.884;8.762;2022-11-11T17:03:57;2.67;;;2.47;;
58252;SDS011;44050;48.884;8.762;2022-11-11T17:06:58;2.47;;;2.28;;
58252;SDS011;44050;48.884;8.762;2022-11-11T17:09:47;4.82;;;2.53;;
58252;SDS011;44050;48.884;8.762;2022-11-11T17:12:37;2.65;;;2.42;;
58252;SDS011;44050;48.884;8.762;2022-11-11T17:15:27;3.90;;;3.53;;
58252;SDS011;44050;48.884;8.762;2022-11-11T17:18:17;3.42;;;2.30;;
58252;SDS011;44050;48.884;8.762;2022-11-11T17:21:06;6.15;;;3.97;;
58252;SDS011;44050;48.884;8.762;2022-11-11T17:27:05;3.03;;;2.17;;
58252;SDS011;44050;48.884;8.762;2022-11-11T17:29:54;4.95;;;2.13;;
58252;SDS011;44050;48.884;8.762;2022-11-11T17:32:46;2.75;;;2.55;;
58252;SDS011;44050;48.884;8.762;2022-11-11T17:35:35;4.72;;;3.28;;
58252;SDS011;44050;48.884;8.762;2022-11-11T17:38:28;1.80;;;1.55;;
58252;SDS011;44050;48.884;8.762;2022-11-11T17:41:21;5.10;;;2.67;;
58252;SDS011;44050;48.884;8.762;2022-11-11T17:47:00;2.38;;;2.03;;
58252;SDS011;44050;48.884;8.762;2022-11-11T17:49:50;3.07;;;2.77;;
58252;SDS011;44050;48.884;8.762;2022-11-11T17:52:40;1.63;;;1.52;;
58252;SDS011;44050;48.884;8.762;2022-11-11T17:55:31;1.55;;;1.45;;
58252;SDS011;44050;48.884;8.762;2022-11-11T17:58:21;6.13;;;1.80;;
58252;SDS011;44050;48.884;8.762;2022-11-11T18:01:12;2.80;;;2.45;;
58252;SDS011;44050;48.884;8.762;2022-11-11T18:04:02;4.65;;;2.67;;
58252;SDS011;44050;48.884;8.762;2022-11-11T18:06:57;2.35;;;2.15;;
58252;SDS011;44050;48.884;8.762;2022-11-11T18:09:47;2.10;;;1.98;;
58252;SDS011;44050;48.884;8.762;2022-11-11T18:12:39;2.00;;;1.88;;
58252;SDS011;44050;48.884;8.762;2022-11-11T18:15:32;2.28;;;2.13;;
58252;SDS011;44050;48.884;8.762;2022-11-11T18:18:22;4.30;;;1.80;;
58252;SDS011;44050;48.884;8.762;2022-11-11T18:21:11;1.90;;;1.75;;
58252;SDS011;44050;48.884;8.762;2022-11-11T18:24:04;7.97;;;1.77;;
58252;SDS011;44050;48.884;8.762;2022-11-11T18:26:55;1.33;;;1.33;;
58252;SDS011;44050;48.884;8.762;2022-11-11T18:29:44;2.92;;;1.67;;
58252;SDS011;44050;48.884;8.762;2022-11-11T18:32:34;1.88;;;1.75;;
58252;SDS011;44050;48.884;8.762;2022-11-11T18:35:23;1.83;;;1.73;;
58252;SDS011;44050;48.884;8.762;2022-11-11T18:38:13;1.45;;;1.13;;
58252;SDS011;44050;48.884;8.762;2022-11-11T18:41:13;1.40;;;1.30;;
58252;SDS011;44050;48.884;8.762;2022-11-11T18:44:03;2.28;;;1.20;;
58252;SDS011;44050;48.884;8.762;2022-11-11T18:46:52;1.38;;;1.27;;
58252;SDS011;44050;48.884;8.762;2022-11-11T18:49:42;1.50;;;1.40;;
58252;SDS011;44050;48.884;8.762;2022-11-11T18:52:32;1.48;;;1.38;;
58252;SDS011;44050;48.884;8.762;2022-11-11T18:55:21;1.85;;;1.30;;
58252;SDS011;44050;48.884;8.762;2022-11-11T18:58:11;2.58;;;1.40;;
58252;SDS011;44050;48.884;8.762;2022-11-11T19:03:57;1.45;;;1.35;;
58252;SDS011;44050;48.884;8.762;2022-11-11T19:06:47;1.25;;;1.23;;
58252;SDS011;44050;48.884;8.762;2022-11-11T19:09:37;0.82;;;0.80;;
58252;SDS011;44050;48.884;8.762;2022-11-11T19:12:27;1.17;;;1.17;;
58252;SDS011;44050;48.884;8.762;2022-11-11T19:15:17;1.27;;;1.17;;
58252;SDS011;44050;48.884;8.762;2022-11-11T19:18:07;1.85;;;1.25;;
58252;SDS011;44050;48.884;8.762;2022-11-11T19:20:57;1.75;;;1.60;;
58252;SDS011;44050;48.884;8.762;2022-11-11T19:23:51;1.80;;;1.63;;
58252;SDS011;44050;48.884;8.762;2022-11-11T19:26:41;1.75;;;1.02;;
58252;SDS011;44050;48.884;8.762;2022-11-11T19:29:32;1.40;;;1.30;;
58252;SDS011;44050;48.884;8.762;2022-11-11T19:32:22;0.80;;;0.80;;
58252;SDS011;44050;48.884;8.762;2022-11-11T19:35:11;3.60;;;1.33;;
58252;SDS011;44050;48.884;8.762;2022-11-11T19:38:04;0.98;;;0.85;;
58252;SDS011;44050;48.884;8.762;2022-11-11T19:40:57;1.65;;;1.55;;
58252;SDS011;44050;48.884;8.762;2022-11-11T19:43:48;1.38;;;1.27;;
58252;SDS011;44050;48.884;8.762;2022-11-11T19:46:47;1.48;;;1.38;;
58252;SDS011;44050;48.884;8.762;2022-11-11T19:49:36;2.08;;;1.30;;
58252;SDS011;44050;48.884;8.762;2022-11-11T19:52:26;2.38;;;0.98;;
58252;SDS011;44050;48.884;8.762;2022-11-11T19:55:15;0.98;;;0.98;;
58252;SDS011;44050;48.884;8.762;2022-11-11T19:58:05;2.65;;;1.55;;
58252;SDS011;44050;48.884;8.762;2022-11-11T20:00:56;1.03;;;0.60;;
58252;SDS011;44050;48.884;8.762;2022-11-11T20:03:45;0.73;;;0.73;;
58252;SDS011;44050;48.884;8.762;2022-11-11T20:06:35;1.48;;;0.90;;
58252;SDS011;44050;48.884;8.762;2022-11-11T20:09:24;1.67;;;1.08;;